Accueil
METAR-TAF:

METAR-TAF

Aéroports :

Aéroport de Mont-Joli

Mont-Joli, Québec, Canada

latitude: 48-36N, longitude: 068-13W, altitude: 48 m

Observation

Le bulletin a été fait il y a 32 minutes, à 00:00 UTC
Vent 8 kt de ouest/sud-ouest
Température 11°C
Humidité 43%
Pression 1007 hPa
Visibilité: 48.3 km
Quelques nuages à une hauteur de 4500 ft

METAR: CYYY 030000Z 25008KT 30SM FEW045 11/M01 A2973 RMK SC1 SLP070

Heure: 20:32 (00:32 UTC)

Prévision

Le bulletin a été fait il y a 4 heures et 54 minutes, à 19:38 UTC
Prévision valable du 02 à 20 UTC au 03 à 08 UTC
Vent 12 kt de ouest/nord-ouest
Visibilité: 10 km
Quelques nuages à une hauteur de 4000 ft
Evoluant progressivement
du 03 à 00 UTC au 03 à 02 UTC
Vent 10 kt de nord-ouest

TAF: CYYY 021938Z 0220/0308 29012KT P6SM FEW040 BECMG 0300/0302 32010KT RMK NXT FCST BY 030200Z

Observations et prévisions météorologiques de plus de 4000 aéroports (messages METAR et TAF).

Les stations disponibles sont représentées par des disques jaunes et rouges sur la carte.

Passer la souris dessus pour voir le nom de la station.

Cliquer dessus pour voir les observations et prévisions météorologiques.

Pour changer de carte: cliquez sur les boutons verts avec une croix noire pour zoomer, sur le bouton vert avec un tiret pour effectuer un zoom arrière, ou sur les flèches vertes pour les cartes adjacentes.


METAR-TAF: